Time;durP1;ratioP1;P1;durP2;ratioP2;P2;SDS_P1;SDS_P2;PMS_P1;PMS_P2;Temp;Humidity;BMP_temperature;BMP_pressure;BME280_temperature;BME280_humidity;BME280_pressure;Samples;Min_cycle;Max_cycle;Signal;HPM_P1;HPM_P2
2022/11/12 00:00:58;;;;;;;14.57;5.20;;;;;;;9.96;100.00;100679.88;5014020;28;20065;-77
2022/11/12 00:03:23;;;;;;;13.93;4.43;;;;;;;9.98;100.00;100683.22;5014907;28;20057;-79
2022/11/12 00:05:50;;;;;;;22.20;6.07;;;;;;;9.90;100.00;100674.22;5014496;28;20091;-78
2022/11/12 00:08:16;;;;;;;14.20;4.97;;;;;;;9.93;100.00;100673.06;5014831;28;20037;-79
2022/11/12 00:10:42;;;;;;;11.83;4.90;;;;;;;9.93;100.00;100673.91;5014809;28;20010;-77
2022/11/12 00:13:07;;;;;;;11.57;4.67;;;;;;;9.98;100.00;100649.47;5014407;28;20029;-76
2022/11/12 00:15:33;;;;;;;14.17;4.60;;;;;;;9.98;100.00;100636.16;5012836;28;20029;-77
2022/11/12 00:17:59;;;;;;;13.37;4.43;;;;;;;9.94;100.00;100624.19;5014635;28;20484;-77
2022/11/12 00:20:24;;;;;;;18.57;4.83;;;;;;;10.04;100.00;100624.88;5014119;28;20061;-78
2022/11/12 00:22:50;;;;;;;16.90;4.27;;;;;;;10.08;100.00;100620.06;5019145;28;20381;-79
2022/11/12 00:25:15;;;;;;;12.67;5.23;;;;;;;10.03;100.00;100630.34;5022104;28;20075;-78
2022/11/12 00:27:41;;;;;;;16.27;4.20;;;;;;;10.05;100.00;100637.19;5017212;28;20032;-78
2022/11/12 00:30:07;;;;;;;12.93;4.33;;;;;;;10.04;100.00;100627.53;5015294;28;20038;-78
2022/11/12 00:32:35;;;;;;;12.77;5.37;;;;;;;10.05;100.00;100631.84;5012992;28;20026;-76
2022/11/12 00:35:01;;;;;;;;;;;;;;;10.14;100.00;100636.22;5012903;28;20409;-78
2022/11/12 00:37:26;;;;;;;18.10;4.00;;;;;;;10.11;100.00;100638.34;5013846;28;19909;-77
2022/11/12 00:39:52;;;;;;;14.40;4.27;;;;;;;10.12;100.00;100632.91;5014087;28;20058;-80
2022/11/12 00:42:17;;;;;;;15.73;4.73;;;;;;;10.08;100.00;100614.72;5013427;28;20107;-79
2022/11/12 00:44:43;;;;;;;12.83;5.30;;;;;;;10.09;100.00;100617.22;5013517;28;20030;-78
2022/11/12 00:47:09;;;;;;;12.70;4.87;;;;;;;10.09;100.00;100611.06;5013425;28;20469;-77
2022/11/12 00:49:34;;;;;;;14.20;4.43;;;;;;;10.14;100.00;100617.59;5013739;28;20090;-79
2022/11/12 00:52:01;;;;;;;17.03;4.47;;;;;;;10.12;100.00;100618.72;5013711;28;20054;-78
2022/11/12 00:54:26;;;;;;;9.03;4.53;;;;;;;10.11;100.00;100620.56;5013248;28;20040;-78
2022/11/12 00:56:52;;;;;;;11.90;3.97;;;;;;;10.15;100.00;100626.41;5012779;28;20373;-78
2022/11/12 00:59:17;;;;;;;11.70;4.10;;;;;;;10.11;100.00;100604.59;5011929;28;20030;-77
2022/11/12 01:01:43;;;;;;;9.77;4.50;;;;;;;10.10;100.00;100594.09;5013849;28;20530;-77
2022/11/12 01:04:09;;;;;;;10.97;4.57;;;;;;;10.15;100.00;100597.97;5013613;28;20411;-79
2022/11/12 01:06:39;;;;;;;11.10;3.93;;;;;;;10.19;100.00;100577.19;5013889;28;20033;-76
2022/11/12 01:09:04;;;;;;;10.23;5.77;;;;;;;10.18;100.00;100564.88;5013981;28;20025;-77
2022/11/12 01:11:30;;;;;;;14.27;4.97;;;;;;;10.14;100.00;100560.88;5013745;28;20033;-78
2022/11/12 01:14:00;;;;;;;11.93;4.47;;;;;;;10.24;100.00;100581.03;5012311;28;20025;-75
2022/11/12 01:16:29;;;;;;;8.27;4.20;;;;;;;10.31;100.00;100580.38;5012955;28;20056;-77
2022/11/12 01:18:57;;;;;;;11.13;4.30;;;;;;;10.33;100.00;100570.38;5013262;28;20048;-77
2022/11/12 01:21:26;;;;;;;17.23;3.83;;;;;;;10.38;100.00;100573.38;5014116;28;20466;-77
2022/11/12 01:23:51;;;;;;;;;;;;;;;10.41;100.00;100583.72;5014351;28;20072;-76
2022/11/12 01:26:19;;;;;;;10.20;3.90;;;;;;;10.39;100.00;100569.72;5014682;28;19968;-78
2022/11/12 01:28:45;;;;;;;11.45;4.15;;;;;;;10.26;100.00;100529.47;5015299;28;20088;-77
2022/11/12 01:31:16;;;;;;;8.53;3.90;;;;;;;10.43;100.00;100549.78;5015706;28;20034;-76
2022/11/12 01:33:45;;;;;;;8.00;3.70;;;;;;;10.48;100.00;100547.44;5016995;28;20026;-79
2022/11/12 01:36:12;;;;;;;8.60;3.85;;;;;;;10.50;100.00;100532.13;5028849;28;20028;-77
2022/11/12 01:38:40;;;;;;;7.17;3.60;;;;;;;10.59;100.00;100527.63;5035371;28;20034;-77
2022/11/12 01:41:07;;;;;;;4.38;2.70;;;;;;;10.64;100.00;100541.25;5033113;28;20026;-75
2022/11/12 01:43:42;;;;;;;8.37;3.57;;;;;;;10.69;100.00;100526.44;5032410;28;20106;-77
2022/11/12 01:46:20;;;;;;;8.27;3.10;;;;;;;10.75;100.00;100511.63;5033429;28;20034;-78
2022/11/12 01:48:54;;;;;;;6.43;3.03;;;;;;;10.78;100.00;100512.13;5035561;28;20034;-78
2022/11/12 01:51:23;;;;;;;5.93;3.00;;;;;;;10.80;100.00;100499.47;5031354;28;20050;-77
2022/11/12 01:53:55;;;;;;;7.33;3.03;;;;;;;10.83;100.00;100499.13;5014277;28;20100;-77
2022/11/12 01:56:22;;;;;;;4.20;2.50;;;;;;;10.86;100.00;100504.09;5014447;28;20088;-76
2022/11/12 01:58:54;;;;;;;8.40;2.83;;;;;;;10.87;100.00;100515.59;5012850;28;20033;-77
2022/11/12 02:01:19;;;;;;;2.90;2.33;;;;;;;10.87;100.00;100510.25;5015542;28;20034;-77
2022/11/12 02:03:45;;;;;;;3.63;2.90;;;;;;;10.88;100.00;100519.09;5016695;28;20473;-77
2022/11/12 02:06:14;;;;;;;3.13;2.87;;;;;;;10.84;100.00;100500.78;5015083;28;20628;-76
2022/11/12 02:08:40;;;;;;;4.37;2.80;;;;;;;10.85;100.00;100491.78;5014762;28;20057;-77
2022/11/12 02:11:14;;;;;;;3.20;2.60;;;;;;;10.91;100.00;100495.59;5019423;28;20102;-78
2022/11/12 02:13:59;;;;;;;4.67;3.33;;;;;;;10.90;100.00;100498.44;5029921;28;20026;-76
2022/11/12 02:16:38;;;;;;;5.37;2.90;;;;;;;10.91;100.00;100489.44;5021577;28;20022;-77
2022/11/12 02:19:07;;;;;;;4.33;2.43;;;;;;;10.86;100.00;100482.78;5024281;28;20037;-77
2022/11/12 02:21:33;;;;;;;4.40;3.10;;;;;;;10.83;100.00;100487.63;5019739;28;20029;-75
2022/11/12 02:24:19;;;;;;;3.03;2.60;;;;;;;10.84;100.00;100500.78;5018702;28;20021;-76
2022/11/12 02:26:48;;;;;;;4.00;2.37;;;;;;;10.77;100.00;100488.31;5016212;28;20036;-77
2022/11/12 02:29:14;;;;;;;3.27;2.40;;;;;;;10.74;100.00;100483.34;5016542;28;20029;-77
2022/11/12 02:31:39;;;;;;;2.90;2.07;;;;;;;10.73;100.00;100482.50;5016228;28;20036;-77
2022/11/12 02:34:05;;;;;;;5.57;2.23;;;;;;;10.75;100.00;100485.81;5016631;28;20071;-75
2022/11/12 02:36:30;;;;;;;4.03;3.00;;;;;;;10.73;100.00;100487.84;5015997;28;20120;-78
2022/11/12 02:38:56;;;;;;;3.20;2.90;;;;;;;10.75;100.00;100480.50;4999070;28;20438;-77
2022/11/12 02:41:22;;;;;;;3.17;2.80;;;;;;;10.68;100.00;100463.50;5017712;28;20021;-77
2022/11/12 02:43:48;;;;;;;2.80;2.47;;;;;;;10.72;100.00;100464.84;5016280;28;20112;-76
2022/11/12 02:46:14;;;;;;;3.90;2.23;;;;;;;10.68;100.00;100452.84;5017028;28;20125;-76
2022/11/12 02:48:40;;;;;;;4.40;2.73;;;;;;;10.72;100.00;100454.22;5016850;28;20485;-77
2022/11/12 02:51:07;;;;;;;4.27;2.50;;;;;;;10.74;100.00;100452.19;5016378;28;20436;-77
2022/11/12 02:53:34;;;;;;;3.33;2.60;;;;;;;10.67;100.00;100445.88;5016729;28;20034;-75
2022/11/12 02:56:00;;;;;;;4.67;2.60;;;;;;;10.69;100.00;100448.38;5018077;28;20030;-77
2022/11/12 02:58:27;;;;;;;3.40;2.47;;;;;;;10.59;100.00;100437.91;5018830;28;20123;-77
2022/11/12 03:00:53;;;;;;;4.20;2.60;;;;;;;10.73;100.00;100445.22;5016751;28;20172;-78
2022/11/12 03:03:18;;;;;;;2.93;2.60;;;;;;;10.70;100.00;100442.91;5015996;28;20049;-77
2022/11/12 03:05:45;;;;;;;4.00;2.27;;;;;;;10.71;100.00;100454.38;5016485;28;20040;-76
2022/11/12 03:08:11;;;;;;;2.90;2.60;;;;;;;10.74;100.00;100446.88;5016461;28;20038;-78
2022/11/12 03:10:38;;;;;;;2.80;2.60;;;;;;;10.78;100.00;100437.53;5015940;28;20022;-77
2022/11/12 03:13:04;;;;;;;2.83;2.23;;;;;;;10.76;100.00;100436.88;5016172;28;20061;-76
2022/11/12 03:15:30;;;;;;;4.90;2.00;;;;;;;10.82;100.00;100446.00;5020644;28;20056;-78
2022/11/12 03:17:57;;;;;;;9.00;2.17;;;;;;;10.77;100.00;100432.38;5022601;28;20381;-77
2022/11/12 03:20:25;;;;;;;3.63;2.20;;;;;;;10.79;100.00;100441.03;5019133;28;20116;-77
2022/11/12 03:22:59;;;;;;;5.93;2.73;;;;;;;10.77;100.00;100433.22;5013910;28;20030;-76
2022/11/12 03:25:25;;;;;;;3.80;2.90;;;;;;;10.76;100.00;100428.06;5015645;28;20040;-77
2022/11/12 03:27:57;;;;;;;3.63;2.57;;;;;;;10.74;100.00;100430.91;5015207;28;20029;-78
2022/11/12 03:30:33;;;;;;;4.33;2.87;;;;;;;10.69;100.00;100419.91;5015530;28;20021;-77
2022/11/12 03:32:59;;;;;;;4.17;2.47;;;;;;;10.61;100.00;100397.78;5015290;28;20146;-78
2022/11/12 03:35:25;;;;;;;6.20;3.13;;;;;;;10.70;100.00;100397.63;5015085;28;20037;-78
2022/11/12 03:37:52;;;;;;;3.37;2.77;;;;;;;10.72;100.00;100389.44;5015144;28;20025;-78
2022/11/12 03:40:19;;;;;;;6.97;2.93;;;;;;;10.73;100.00;100380.47;5014984;28;20045;-79
2022/11/12 03:42:46;;;;;;;4.37;2.60;;;;;;;10.76;100.00;100390.75;5015289;28;20018;-77
2022/11/12 03:45:12;;;;;;;3.80;2.93;;;;;;;10.80;100.00;100402.72;5014753;28;20026;-77
2022/11/12 03:47:43;;;;;;;4.70;3.00;;;;;;;10.82;100.00;100388.22;5013962;28;20148;-76
2022/11/12 03:50:09;;;;;;;3.43;2.77;;;;;;;10.83;100.00;100375.75;5013631;28;20088;-78
2022/11/12 03:52:37;;;;;;;5.93;2.57;;;;;;;10.83;100.00;100365.09;5014869;28;20384;-78
2022/11/12 03:55:05;;;;;;;2.70;2.10;;;;;;;10.81;100.00;100351.94;5013583;28;20037;-76
2022/11/12 03:57:30;;;;;;;4.63;2.05;;;;;;;10.83;100.00;100344.59;5015307;28;20041;-78
2022/11/12 03:59:56;;;;;;;3.30;2.03;;;;;;;10.82;100.00;100342.13;5015035;28;20420;-78
2022/11/12 04:02:24;;;;;;;9.70;2.50;;;;;;;10.81;100.00;100349.28;5013695;28;20030;-77
2022/11/12 04:10:19;;;;;;;3.90;2.43;;;;;;;10.76;100.00;100338.31;5014829;28;20354;-77
2022/11/12 04:15:36;;;;;;;3.00;1.90;;;;;;;10.63;100.00;100306.06;5014547;28;20026;-78
2022/11/12 04:23:32;;;;;;;3.27;2.30;;;;;;;10.74;100.00;100302.22;5014521;28;20482;-79
2022/11/12 04:31:30;;;;;;;2.43;1.87;;;;;;;10.76;100.00;100295.72;4986076;28;20046;-79
2022/11/12 04:34:27;;;;;;;2.00;1.80;;;;;;;10.75;100.00;100294.03;5015178;28;20026;-75
2022/11/12 04:46:00;;;;;;;3.53;1.70;;;;;;;10.81;100.00;100277.34;5016632;28;20069;-77
2022/11/12 04:48:26;;;;;;;2.50;1.80;;;;;;;10.78;100.00;100267.06;5014033;28;20029;-77
2022/11/12 04:52:03;;;;;;;2.87;2.00;;;;;;;10.78;100.00;100264.41;5013124;28;20056;-76
2022/11/12 04:53:49;;;;;;;3.47;2.03;;;;;;;10.68;100.00;100237.13;5013715;28;20084;-79
2022/11/12 04:56:15;;;;;;;3.00;2.17;;;;;;;10.73;100.00;100253.44;5014137;28;20124;-77
2022/11/12 04:58:41;;;;;;;2.33;1.97;;;;;;;10.72;100.00;100250.97;5022276;28;20166;-77
2022/11/12 05:01:06;;;;;;;1.50;1.37;;;;;;;10.70;100.00;100237.81;5021046;28;20325;-78
2022/11/12 05:03:32;;;;;;;4.37;1.87;;;;;;;10.72;100.00;100238.47;5014466;28;20112;-77
2022/11/12 05:06:01;;;;;;;2.23;1.80;;;;;;;10.70;100.00;100243.16;5014638;28;20134;-77
2022/11/12 05:08:27;;;;;;;2.00;1.80;;;;;;;10.70;100.00;100242.31;5014464;28;20084;-77
2022/11/12 05:10:52;;;;;;;1.83;1.67;;;;;;;10.74;100.00;100244.44;5015225;28;20164;-79
2022/11/12 05:13:18;;;;;;;5.87;2.03;;;;;;;10.71;100.00;100239.47;5013778;28;20037;-78
2022/11/12 05:15:43;;;;;;;2.30;2.10;;;;;;;10.66;100.00;100225.84;5013888;28;20022;-77
2022/11/12 05:18:09;;;;;;;2.87;1.87;;;;;;;10.69;100.00;100225.47;5012300;28;20041;-77
2022/11/12 05:20:35;;;;;;;2.13;1.63;;;;;;;10.69;100.00;100232.63;5013596;28;20026;-77
2022/11/12 05:23:01;;;;;;;1.90;1.80;;;;;;;10.68;100.00;100228.31;5013967;28;20065;-77
2022/11/12 05:25:29;;;;;;;1.60;1.50;;;;;;;10.65;100.00;100228.69;5014519;28;20466;-78
2022/11/12 05:27:54;;;;;;;2.38;2.10;;;;;;;10.61;100.00;100233.53;5014098;28;20033;-77
2022/11/12 05:30:20;;;;;;;1.87;1.77;;;;;;;10.59;100.00;100238.19;5012112;28;20030;-77
2022/11/12 05:32:45;;;;;;;1.70;1.60;;;;;;;10.48;100.00;100222.63;5011176;28;20038;-76
2022/11/12 05:35:11;;;;;;;2.90;1.67;;;;;;;10.43;100.00;100225.00;5013810;28;20072;-76
2022/11/12 05:37:36;;;;;;;2.30;1.83;;;;;;;10.40;100.00;100222.66;5012582;28;20058;-76
2022/11/12 05:40:02;;;;;;;1.50;1.40;;;;;;;10.34;100.00;100220.69;5013423;28;20029;-77
2022/11/12 05:42:29;;;;;;;1.90;1.80;;;;;;;10.19;100.00;100210.78;5013763;28;20030;-77
2022/11/12 05:44:54;;;;;;;2.00;1.80;;;;;;;10.24;100.00;100200.47;5014796;28;20481;-76
2022/11/12 05:47:20;;;;;;;2.57;2.23;;;;;;;10.22;100.00;100198.97;5016372;28;20034;-76
2022/11/12 05:49:45;;;;;;;2.40;2.20;;;;;;;10.23;100.00;100190.81;5017119;28;20026;-76
2022/11/12 05:52:11;;;;;;;2.53;2.33;;;;;;;10.20;100.00;100200.94;5017084;28;20389;-77
2022/11/12 05:54:36;;;;;;;2.47;2.10;;;;;;;10.18;100.00;100190.47;5017993;28;20412;-78
2022/11/12 05:57:02;;;;;;;2.57;1.90;;;;;;;10.23;100.00;100204.13;5017573;28;20033;-79
2022/11/12 05:59:28;;;;;;;2.03;1.83;;;;;;;10.21;100.00;100199.97;5018102;28;20084;-78
2022/11/12 06:01:54;;;;;;;2.03;1.50;;;;;;;10.19;100.00;100202.78;5018505;28;20454;-80
2022/11/12 06:04:20;;;;;;;1.77;1.67;;;;;;;10.14;100.00;100189.19;5017414;28;20406;-80
2022/11/12 06:06:45;;;;;;;1.90;1.70;;;;;;;10.19;100.00;100186.81;5017670;28;20029;-77
2022/11/12 06:09:11;;;;;;;2.23;1.57;;;;;;;10.21;100.00;100171.53;5016930;28;20060;-77
2022/11/12 06:11:37;;;;;;;3.60;2.00;;;;;;;10.21;100.00;100174.19;5015072;28;20026;-78
2022/11/12 06:14:03;;;;;;;2.37;1.30;;;;;;;10.20;100.00;100177.88;5018654;28;20061;-77
2022/11/12 06:16:30;;;;;;;2.27;1.60;;;;;;;10.16;100.00;100173.03;5015487;28;20025;-78
2022/11/12 06:18:56;;;;;;;1.50;1.40;;;;;;;10.14;100.00;100157.25;5016938;28;20407;-77
2022/11/12 06:21:21;;;;;;;2.10;1.87;;;;;;;10.15;100.00;100152.75;5016998;28;20060;-78
2022/11/12 06:23:51;;;;;;;4.40;1.77;;;;;;;10.10;100.00;100144.44;5016629;28;20040;-78
2022/11/12 06:26:17;;;;;;;2.72;1.75;;;;;;;10.12;100.00;100137.97;5017105;28;20160;-76
2022/11/12 06:28:43;;;;;;;2.10;1.63;;;;;;;10.12;100.00;100132.66;5018195;28;20037;-77
2022/11/12 06:31:08;;;;;;;4.10;1.80;;;;;;;10.03;100.00;100109.72;5017669;28;20038;-77
2022/11/12 06:33:34;;;;;;;3.07;1.70;;;;;;;10.02;100.00;100126.69;5015570;28;20025;-77
2022/11/12 06:36:02;;;;;;;3.00;2.30;;;;;;;9.91;100.00;100096.00;5016825;28;20025;-77
2022/11/12 06:38:32;;;;;;;2.92;2.05;;;;;;;10.07;100.00;100134.97;5019010;28;20382;-77
2022/11/12 06:40:58;;;;;;;4.17;2.00;;;;;;;10.03;100.00;100128.34;5014761;28;20049;-78
2022/11/12 06:43:25;;;;;;;6.47;2.50;;;;;;;10.03;100.00;100112.38;5016530;28;20017;-75
2022/11/12 06:45:50;;;;;;;5.03;4.00;;;;;;;10.07;100.00;100118.19;5016965;28;20061;-75
2022/11/12 06:48:16;;;;;;;7.23;2.27;;;;;;;10.06;100.00;100112.03;5020755;28;20030;-77
2022/11/12 06:50:41;;;;;;;3.33;2.10;;;;;;;10.06;100.00;100122.69;5020312;28;20034;-76
2022/11/12 06:53:10;;;;;;;2.57;1.70;;;;;;;10.06;100.00;100117.34;5004183;28;20050;-76
2022/11/12 06:55:36;;;;;;;5.15;1.92;;;;;;;10.02;100.00;100121.38;5000179;28;20030;-77
2022/11/12 06:58:01;;;;;;;4.90;2.17;;;;;;;10.01;100.00;100118.91;5001126;28;20030;-78
2022/11/12 07:00:28;;;;;;;5.27;2.27;;;;;;;9.97;100.00;100126.41;5001248;28;20065;-81
2022/11/12 07:02:54;;;;;;;4.40;2.10;;;;;;;9.96;100.00;100126.56;4995245;28;20029;-76
2022/11/12 07:05:19;;;;;;;3.60;2.00;;;;;;;9.89;100.00;100105.16;5016092;28;20034;-76
2022/11/12 07:07:45;;;;;;;6.17;2.30;;;;;;;9.92;100.00;100107.47;5015186;28;20442;-76
2022/11/12 07:10:11;;;;;;;5.47;2.23;;;;;;;9.73;100.00;100097.25;5014974;28;20121;-77
2022/11/12 07:12:36;;;;;;;5.40;2.93;;;;;;;9.90;100.00;100123.59;5016018;28;20040;-77
2022/11/12 07:15:02;;;;;;;8.87;3.47;;;;;;;9.89;100.00;100113.97;5015697;28;20025;-83
2022/11/12 07:17:35;;;;;;;5.60;3.10;;;;;;;9.84;100.00;100107.53;5016977;28;20465;-79
2022/11/12 07:20:13;;;;;;;12.23;2.93;;;;;;;9.84;100.00;100100.38;5018371;28;20040;-80
2022/11/12 07:22:40;;;;;;;7.47;3.10;;;;;;;9.77;100.00;100093.25;5018214;28;20037;-76
2022/11/12 07:25:05;;;;;;;9.63;3.40;;;;;;;9.80;100.00;100106.19;5026597;28;20013;-77
2022/11/12 07:27:31;;;;;;;14.47;3.93;;;;;;;9.78;100.00;100087.75;5020178;28;20029;-77
2022/11/12 07:29:56;;;;;;;8.67;4.20;;;;;;;9.76;100.00;100083.59;5000443;28;20439;-76
2022/11/12 07:32:24;;;;;;;12.40;4.27;;;;;;;9.79;100.00;100086.75;4997468;28;20030;-81
2022/11/12 07:34:49;;;;;;;11.70;3.60;;;;;;;9.80;100.00;100084.91;4994943;28;20030;-75
2022/11/12 07:37:15;;;;;;;7.83;3.50;;;;;;;9.76;100.00;100073.81;4995120;28;20030;-76
2022/11/12 07:39:41;;;;;;;14.77;4.60;;;;;;;9.75;100.00;100066.00;4996014;28;20354;-77
2022/11/12 07:42:07;;;;;;;12.77;4.73;;;;;;;9.85;100.00;100069.28;4995447;28;20022;-74
2022/11/12 07:44:32;;;;;;;11.57;4.83;;;;;;;9.80;100.00;100063.63;4997667;28;20019;-79
2022/11/12 07:46:58;;;;;;;17.90;4.60;;;;;;;9.91;100.00;100056.09;4996045;28;20066;-72
2022/11/12 07:49:23;;;;;;;19.20;4.43;;;;;;;9.95;100.00;100067.22;4993447;28;20025;-78
2022/11/12 07:51:50;;;;;;;10.53;4.53;;;;;;;9.95;100.00;100059.25;4994535;28;20135;-76
2022/11/12 07:54:16;;;;;;;11.63;4.10;;;;;;;9.99;100.00;100079.16;4994943;28;20034;-77
2022/11/12 07:56:41;;;;;;;10.23;3.73;;;;;;;9.95;100.00;100093.81;4994617;28;20082;-77
2022/11/12 07:59:07;;;;;;;9.77;3.70;;;;;;;9.92;100.00;100094.19;4994721;28;20355;-76
2022/11/12 08:01:38;;;;;;;13.07;5.03;;;;;;;9.93;100.00;100090.50;4993445;28;20065;-76
2022/11/12 08:04:06;;;;;;;9.70;4.63;;;;;;;9.94;100.00;100093.00;4994816;28;20077;-74
2022/11/12 08:06:32;;;;;;;11.13;4.53;;;;;;;9.89;100.00;100089.22;4994518;28;20386;-76
2022/11/12 08:09:00;;;;;;;11.27;4.17;;;;;;;9.92;100.00;100100.31;4994003;28;20034;-76
2022/11/12 08:11:29;;;;;;;13.73;4.20;;;;;;;9.95;100.00;100115.09;4994979;28;20149;-74
2022/11/12 08:13:54;;;;;;;17.13;5.45;;;;;;;9.97;100.00;100098.97;4994715;28;20030;-76
2022/11/12 08:16:20;;;;;;;14.30;3.87;;;;;;;9.90;100.00;100088.22;4993106;28;20536;-76
2022/11/12 08:18:46;;;;;;;17.33;4.10;;;;;;;10.01;100.00;100109.09;4994643;28;20033;-76
2022/11/12 08:21:15;;;;;;;16.90;4.87;;;;;;;9.99;100.00;100083.66;4994435;28;20026;-76
2022/11/12 08:23:41;;;;;;;21.97;4.37;;;;;;;10.07;100.00;100103.06;4994092;28;20121;-73
2022/11/12 08:29:55;;;;;;;13.53;4.33;;;;;;;9.83;100.00;100064.16;4951309;29;20042;-76
2022/11/12 08:32:23;;;;;;;15.18;4.22;;;;;;;10.01;100.00;100103.75;4951015;29;20063;-78
2022/11/12 08:35:07;;;;;;;18.20;5.30;;;;;;;10.10;100.00;100126.66;4991325;28;20038;-78
2022/11/12 08:41:28;;;;;;;15.13;5.20;;;;;;;10.07;100.00;100086.25;4994674;28;20052;-79
2022/11/12 08:43:54;;;;;;;14.20;4.90;;;;;;;10.28;100.00;100122.94;4994925;28;20027;-76
2022/11/12 08:46:19;;;;;;;11.30;3.97;;;;;;;10.37;100.00;100135.16;4994878;28;20439;-74
2022/11/12 08:48:48;;;;;;;10.20;5.37;;;;;;;10.41;100.00;100129.34;5009493;28;20478;-77
2022/11/12 08:51:16;;;;;;;17.00;6.17;;;;;;;10.46;100.00;100112.84;4993313;28;20117;-74
2022/11/12 08:53:43;;;;;;;12.43;4.80;;;;;;;10.52;100.00;100128.09;4993490;28;20031;-75
2022/11/12 08:56:09;;;;;;;14.20;4.53;;;;;;;10.54;100.00;100126.06;5010406;28;20389;-75
2022/11/12 08:58:34;;;;;;;13.90;4.07;;;;;;;10.59;100.00;100125.53;5012638;28;20026;-74
2022/11/12 09:01:07;;;;;;;17.43;5.30;;;;;;;10.63;100.00;100142.81;5012563;28;20423;-72
2022/11/12 09:03:32;;;;;;;19.00;4.43;;;;;;;10.69;100.00;100160.72;5012006;28;20021;-72
2022/11/12 09:06:02;;;;;;;10.73;4.23;;;;;;;10.74;100.00;100153.91;5012627;28;20025;-78
2022/11/12 09:08:40;;;;;;;12.30;4.80;;;;;;;10.75;100.00;100147.56;5013814;28;20424;-78
2022/11/12 09:11:09;;;;;;;9.80;3.53;;;;;;;10.77;100.00;100166.03;5014511;28;20061;-78
2022/11/12 09:14:08;;;;;;;12.82;4.90;;;;;;;10.80;100.00;100155.84;5013586;28;20033;-79
2022/11/12 09:23:11;;;;;;;16.10;4.77;;;;;;;10.71;100.00;100188.88;5149004;22;20053;-80
2022/11/12 09:25:39;;;;;;;12.30;4.17;;;;;;;10.74;100.00;100196.50;5036031;28;20048;-79
2022/11/12 09:28:07;;;;;;;26.90;5.00;;;;;;;10.79;100.00;100209.28;5033991;28;20041;-77
2022/11/12 09:30:33;;;;;;;20.15;5.38;;;;;;;10.84;100.00;100202.41;5034462;28;20025;-72
2022/11/12 09:32:58;;;;;;;11.33;3.83;;;;;;;10.91;100.00;100217.69;5033568;28;20030;-77
2022/11/12 09:35:24;;;;;;;16.23;5.90;;;;;;;10.83;100.00;100206.09;5032578;28;20025;-74
2022/11/12 09:37:49;;;;;;;15.57;5.53;;;;;;;10.90;100.00;100216.84;5032033;28;20021;-76
2022/11/12 09:40:18;;;;;;;17.20;5.67;;;;;;;10.98;100.00;100223.94;5014980;28;20083;-73
2022/11/12 09:42:51;;;;;;;13.52;5.32;;;;;;;10.98;100.00;100246.09;5032217;28;20049;-77
2022/11/12 09:45:26;;;;;;;26.43;6.83;;;;;;;10.94;100.00;100233.31;5032583;28;20030;-74
2022/11/12 09:47:58;;;;;;;16.17;4.50;;;;;;;10.92;100.00;100203.34;5032546;28;20026;-78
2022/11/12 09:50:30;;;;;;;11.30;4.77;;;;;;;10.92;100.00;100204.19;5015222;28;20035;-74
2022/11/12 09:53:17;;;;;;;13.43;4.40;;;;;;;10.94;100.00;100223.47;5032635;28;20564;-75
2022/11/12 09:55:54;;;;;;;15.37;4.00;;;;;;;10.95;100.00;100235.78;5032352;28;20048;-78
2022/11/12 10:02:41;;;;;;;15.05;3.92;;;;;;;10.96;100.00;100260.59;5032299;28;20048;-77
2022/11/12 10:05:36;;;;;;;18.40;5.10;;;;;;;10.90;100.00;100270.13;5012143;28;20430;-78
2022/11/12 10:18:07;;;;;;;12.40;4.77;;;;;;;10.91;100.00;100297.59;5052191;28;19919;-77
2022/11/12 10:20:55;;;;;;;12.73;4.43;;;;;;;10.95;100.00;100293.59;5052113;28;20123;-75
2022/11/12 10:23:27;;;;;;;8.45;3.70;;;;;;;10.90;100.00;100303.94;5027744;28;20034;-79
2022/11/12 10:25:57;;;;;;;12.27;5.13;;;;;;;10.89;100.00;100310.28;5032120;28;20504;-76
2022/11/12 10:28:39;;;;;;;16.37;4.33;;;;;;;10.89;100.00;100334.25;5032359;28;20479;-76
2022/11/12 10:31:14;;;;;;;14.40;5.37;;;;;;;10.91;100.00;100313.59;5031990;28;20116;-76
2022/11/12 10:33:40;;;;;;;12.37;4.00;;;;;;;10.92;100.00;100309.91;5035227;28;20311;-77
2022/11/12 10:36:24;;;;;;;12.17;3.73;;;;;;;10.93;100.00;100338.22;5036054;28;20036;-75
2022/11/12 10:38:53;;;;;;;13.50;4.60;;;;;;;10.87;100.00;100329.09;5035860;28;20440;-75
2022/11/12 10:41:25;;;;;;;11.18;4.28;;;;;;;10.90;100.00;100312.75;5016141;28;20054;-78
2022/11/12 10:44:02;;;;;;;8.77;3.50;;;;;;;11.02;100.00;100342.53;5034339;28;20021;-78
2022/11/12 10:46:37;;;;;;;13.23;4.53;;;;;;;11.14;100.00;100327.78;5035654;28;20390;-75
2022/11/12 10:49:23;;;;;;;15.63;3.73;;;;;;;11.18;100.00;100358.41;5035148;28;20075;-80
2022/11/12 10:51:58;;;;;;;9.90;3.53;;;;;;;11.19;100.00;100357.38;5035867;28;20094;-78
2022/11/12 10:54:26;;;;;;;9.43;4.83;;;;;;;11.05;100.00;100352.81;5035299;28;20381;-81
2022/11/12 10:56:52;;;;;;;16.40;5.55;;;;;;;11.09;100.00;100376.28;5035940;28;20091;-75
2022/11/12 10:59:24;;;;;;;11.17;5.23;;;;;;;11.03;100.00;100376.97;5036147;28;20038;-77
2022/11/12 11:01:59;;;;;;;14.67;4.17;;;;;;;11.00;100.00;100360.53;5037162;28;20033;-80
2022/11/12 11:19:52;;;;;;;12.43;3.17;;;;;;;10.42;100.00;100351.94;4901302;29;20043;-78
2022/11/12 11:31:07;;;;;;;17.43;3.87;;;;;;;10.71;100.00;100401.13;4950041;29;20039;-80
2022/11/12 11:58:03;;;;;;;9.03;3.60;;;;;;;10.61;100.00;100473.19;4893968;29;20131;-75
2022/11/12 12:04:48;;;;;;;;;;;;;;;;;;;;;
2022/11/12 12:07:39;;;;;;;9.37;3.00;;;;;;;10.53;100.00;100475.88;4905322;29;20027;-76
2022/11/12 12:11:01;;;;;;;8.07;3.13;;;;;;;10.53;100.00;100474.03;4928861;28;20039;-76
2022/11/12 12:13:29;;;;;;;7.10;2.37;;;;;;;10.54;100.00;100493.50;5012110;28;20326;-75
2022/11/12 12:16:35;;;;;;;8.38;2.83;;;;;;;10.53;100.00;100502.50;4996517;28;20041;-73
2022/11/12 12:19:23;;;;;;;8.50;2.67;;;;;;;10.51;100.00;100483.22;5014482;28;20029;-74
2022/11/12 12:21:50;;;;;;;8.43;4.17;;;;;;;10.49;100.00;100483.38;5022641;28;20076;-76
2022/11/12 12:24:48;;;;;;;6.83;2.93;;;;;;;10.75;100.00;100509.78;5013485;28;20057;-78
2022/11/12 12:31:23;;;;;;;10.00;2.93;;;;;;;11.01;96.53;100516.72;5013273;28;20045;-82
2022/11/12 12:34:16;;;;;;;13.53;2.30;;;;;;;10.74;97.28;100518.78;5013552;28;20042;-75
2022/11/12 12:37:04;;;;;;;9.37;2.20;;;;;;;10.40;98.34;100500.34;5012335;28;20065;-75
2022/11/12 12:40:07;;;;;;;17.73;2.83;;;;;;;10.41;98.28;100530.47;5001372;28;20026;-74
2022/11/12 12:42:40;;;;;;;7.67;2.37;;;;;;;10.20;99.06;100521.16;4992716;28;20114;-74
2022/11/12 12:45:45;;;;;;;9.00;2.57;;;;;;;10.23;98.86;100536.78;5013670;28;20088;-74
2022/11/12 12:48:21;;;;;;;5.43;2.40;;;;;;;10.10;98.90;100511.63;4994107;28;20132;-77
2022/11/12 12:50:49;;;;;;;5.80;2.00;;;;;;;10.07;98.99;100520.78;4999833;28;20030;-73
2022/11/12 12:53:17;;;;;;;6.68;2.35;;;;;;;10.04;99.15;100536.22;5015352;28;20025;-76
2022/11/12 12:55:46;;;;;;;5.05;2.33;;;;;;;9.99;99.19;100535.91;5013178;28;20558;-76
2022/11/12 12:58:40;;;;;;;6.75;2.33;;;;;;;9.90;99.53;100551.03;5014969;28;20026;-74
2022/11/12 13:01:20;;;;;;;8.27;2.80;;;;;;;9.86;99.82;100566.47;5015137;28;20041;-79
2022/11/12 13:04:00;;;;;;;9.60;2.70;;;;;;;9.62;99.73;100545.13;5017369;28;20056;-76
2022/11/12 13:06:50;;;;;;;7.90;2.80;;;;;;;9.63;99.85;100568.91;5011775;28;20076;-73
2022/11/12 13:09:16;;;;;;;3.43;1.90;;;;;;;9.65;99.77;100581.19;5008809;28;20049;-75
2022/11/12 13:14:35;;;;;;;9.13;3.17;;;;;;;9.65;99.13;100591.84;5014020;28;20029;-76
2022/11/12 13:17:11;;;;;;;4.57;2.10;;;;;;;9.60;99.34;100595.81;5012379;28;20034;-72
2022/11/12 13:19:55;;;;;;;3.87;2.03;;;;;;;9.59;98.34;100594.16;5012055;28;20674;-74
2022/11/12 13:22:22;;;;;;;8.83;2.33;;;;;;;9.60;98.24;100608.28;5015740;28;20392;-72
2022/11/12 13:25:07;;;;;;;5.33;1.77;;;;;;;9.57;97.96;100614.75;5012571;28;20504;-73
2022/11/12 13:27:38;;;;;;;7.33;1.90;;;;;;;9.56;97.75;100605.09;4996982;28;20046;-74